Weather at Prime Minister's Residence South Helipad

Public forecast

Using degrees Celsius for public forecast. Weather courtesy of forecast.io.

Closest aviation weather report (METAR) to Prime Minister's Residence South Helipad

Closest report is Islamabad International Airport, 17.9 nm (33.1 km) SW.

2024/07/21 13:00 (retrieved 35 minutes ago)

OPIS 211300Z 13014KT 5000 FU SCT040 SCT100 36/27 Q0997 NOSIG

Closest aviation forecast (TAF) to Prime Minister's Residence South Helipad

Closest forecast is Islamabad International Airport, 17.9 nm (33.1 km) SW.

2024/07/21 12:00 (retrieved 2 hours ago)

TAF OPIS 211100Z 2112/2218 13010KT 5000 HZ FEW040 SCT100 TEMPO 2200/2204 09015G25KT 2000 TSRA FEW030CB SCT040 OVC100